KTHA/THA METAR and TAF weather

Enter ICAO airport designator
Station Type Date Time Source
KTHA METAR 2021/09/24 05:15 UTC NOAA

KTHA 240515Z AUTO 00000KT 10SM CLR 08/08 A3011 RMK A01


Station Type Date Time Source
KTHA Decoded METAR 2021/09/24 05:15 UTC NOAA

Station name not available
Sep 24, 2021 - 01:15 AM EDT / 2021.09.24 0515 UTC
Wind: Calm:0
Visibility: 10 mile(s):0
Sky conditions: clear
Temperature: 46 F (8 C)
Dew Point: 46 F (8 C)
Relative Humidity: 100%
Pressure (altimeter): 30.11 in. Hg (1019 hPa)
ob: KTHA 240515Z AUTO 00000KT 10SM CLR 08/08 A3011 RMK A01
cycle: 5

Station Type Date Time Source
KTHA TAF UTC NOAA

Error!

Example: see airport list